sensor_id;sensor_type;location;lat;lon;timestamp;noise_LAeq;noise_LA_min;noise_LA_max;noise_LA01;noise_LA95
41704;Laerm;861;48.808;9.006;2024-01-25T00:02:18;38.77;37.27;49.62;;
41704;Laerm;861;48.808;9.006;2024-01-25T00:04:45;38.69;37.29;46.28;;
41704;Laerm;861;48.808;9.006;2024-01-25T00:07:11;38.64;37.31;42.12;;
41704;Laerm;861;48.808;9.006;2024-01-25T00:09:38;38.64;37.27;43.23;;
41704;Laerm;861;48.808;9.006;2024-01-25T00:12:05;38.65;37.42;45.25;;
41704;Laerm;861;48.808;9.006;2024-01-25T00:14:32;38.66;37.38;47.16;;
41704;Laerm;861;48.808;9.006;2024-01-25T00:16:59;39.40;37.24;59.97;;
41704;Laerm;861;48.808;9.006;2024-01-25T00:19:25;38.54;37.26;40.27;;
41704;Laerm;861;48.808;9.006;2024-01-25T00:21:52;38.49;37.26;39.75;;
41704;Laerm;861;48.808;9.006;2024-01-25T00:24:18;38.48;37.06;43.49;;
41704;Laerm;861;48.808;9.006;2024-01-25T00:26:45;38.47;37.12;42.16;;
41704;Laerm;861;48.808;9.006;2024-01-25T00:29:11;38.49;36.98;43.11;;
41704;Laerm;861;48.808;9.006;2024-01-25T00:31:38;38.55;37.36;47.90;;
41704;Laerm;861;48.808;9.006;2024-01-25T00:34:05;38.48;36.94;42.86;;
41704;Laerm;861;48.808;9.006;2024-01-25T00:36:32;38.49;37.12;42.43;;
41704;Laerm;861;48.808;9.006;2024-01-25T00:38:59;38.53;37.07;43.01;;
41704;Laerm;861;48.808;9.006;2024-01-25T00:41:27;38.54;37.32;43.79;;
41704;Laerm;861;48.808;9.006;2024-01-25T00:43:54;38.53;37.29;44.66;;
41704;Laerm;861;48.808;9.006;2024-01-25T00:46:22;38.50;37.26;41.20;;
41704;Laerm;861;48.808;9.006;2024-01-25T00:48:49;38.48;37.32;42.78;;
41704;Laerm;861;48.808;9.006;2024-01-25T00:51:22;38.45;37.01;40.67;;
41704;Laerm;861;48.808;9.006;2024-01-25T00:53:51;38.41;36.99;41.32;;
41704;Laerm;861;48.808;9.006;2024-01-25T00:56:19;38.38;37.01;41.92;;
41704;Laerm;861;48.808;9.006;2024-01-25T00:58:46;38.39;37.03;45.49;;
41704;Laerm;861;48.808;9.006;2024-01-25T01:01:13;38.42;36.84;42.49;;
41704;Laerm;861;48.808;9.006;2024-01-25T01:03:40;38.40;36.95;39.55;;
41704;Laerm;861;48.808;9.006;2024-01-25T01:06:08;38.40;37.20;39.80;;
41704;Laerm;861;48.808;9.006;2024-01-25T01:08:36;38.46;37.09;46.48;;
41704;Laerm;861;48.808;9.006;2024-01-25T01:11:02;38.49;37.23;44.91;;
41704;Laerm;861;48.808;9.006;2024-01-25T01:13:29;38.54;37.25;44.81;;
41704;Laerm;861;48.808;9.006;2024-01-25T01:15:56;38.48;37.18;40.05;;
41704;Laerm;861;48.808;9.006;2024-01-25T01:18:22;38.80;37.16;54.06;;
41704;Laerm;861;48.808;9.006;2024-01-25T01:20:49;38.48;37.20;44.55;;
41704;Laerm;861;48.808;9.006;2024-01-25T01:23:15;38.47;36.73;41.14;;
41704;Laerm;861;48.808;9.006;2024-01-25T01:25:42;38.46;37.14;40.89;;
41704;Laerm;861;48.808;9.006;2024-01-25T01:28:08;38.53;37.22;45.72;;
41704;Laerm;861;48.808;9.006;2024-01-25T01:30:35;38.51;37.22;46.50;;
41704;Laerm;861;48.808;9.006;2024-01-25T01:33:01;38.65;37.28;47.85;;
41704;Laerm;861;48.808;9.006;2024-01-25T01:35:28;38.47;37.19;39.83;;
41704;Laerm;861;48.808;9.006;2024-01-25T01:37:54;38.52;37.17;45.87;;
41704;Laerm;861;48.808;9.006;2024-01-25T01:40:21;38.69;37.21;49.89;;
41704;Laerm;861;48.808;9.006;2024-01-25T01:42:47;38.61;37.28;46.43;;
41704;Laerm;861;48.808;9.006;2024-01-25T01:45:14;38.67;37.44;45.37;;
41704;Laerm;861;48.808;9.006;2024-01-25T01:47:41;38.58;37.34;40.97;;
41704;Laerm;861;48.808;9.006;2024-01-25T01:50:10;38.59;37.19;44.13;;
41704;Laerm;861;48.808;9.006;2024-01-25T01:52:38;38.65;37.36;44.43;;
41704;Laerm;861;48.808;9.006;2024-01-25T01:55:06;38.62;37.21;41.87;;
41704;Laerm;861;48.808;9.006;2024-01-25T01:57:34;38.61;37.22;42.07;;
41704;Laerm;861;48.808;9.006;2024-01-25T02:00:06;38.59;37.35;43.17;;
41704;Laerm;861;48.808;9.006;2024-01-25T02:02:35;38.55;37.25;40.01;;
41704;Laerm;861;48.808;9.006;2024-01-25T02:05:02;38.69;37.35;47.76;;
41704;Laerm;861;48.808;9.006;2024-01-25T02:07:31;38.71;37.38;47.37;;
41704;Laerm;861;48.808;9.006;2024-01-25T02:09:57;38.63;37.42;46.25;;
41704;Laerm;861;48.808;9.006;2024-01-25T02:12:24;38.65;37.41;45.40;;
41704;Laerm;861;48.808;9.006;2024-01-25T02:14:51;38.57;37.34;39.99;;
41704;Laerm;861;48.808;9.006;2024-01-25T02:17:18;38.56;37.35;41.66;;
41704;Laerm;861;48.808;9.006;2024-01-25T02:19:44;38.56;37.29;42.38;;
41704;Laerm;861;48.808;9.006;2024-01-25T02:24:38;38.55;37.05;42.71;;
41704;Laerm;861;48.808;9.006;2024-01-25T02:27:04;38.57;37.30;42.76;;
41704;Laerm;861;48.808;9.006;2024-01-25T02:29:31;38.78;37.43;52.22;;
41704;Laerm;861;48.808;9.006;2024-01-25T02:31:58;38.67;37.07;45.11;;
41704;Laerm;861;48.808;9.006;2024-01-25T02:34:24;38.59;37.26;39.80;;
41704;Laerm;861;48.808;9.006;2024-01-25T02:36:51;38.72;36.88;48.39;;
41704;Laerm;861;48.808;9.006;2024-01-25T02:39:17;38.78;37.41;51.85;;
41704;Laerm;861;48.808;9.006;2024-01-25T02:41:44;38.68;37.29;47.77;;
41704;Laerm;861;48.808;9.006;2024-01-25T02:44:12;38.59;37.28;43.70;;
41704;Laerm;861;48.808;9.006;2024-01-25T02:46:39;38.53;37.24;40.68;;
41704;Laerm;861;48.808;9.006;2024-01-25T02:49:05;38.82;37.30;54.05;;
41704;Laerm;861;48.808;9.006;2024-01-25T02:51:32;38.55;37.35;42.98;;
41704;Laerm;861;48.808;9.006;2024-01-25T02:53:58;38.52;37.17;42.63;;
41704;Laerm;861;48.808;9.006;2024-01-25T02:56:25;38.49;36.88;39.60;;
41704;Laerm;861;48.808;9.006;2024-01-25T02:58:51;38.50;37.22;40.18;;
41704;Laerm;861;48.808;9.006;2024-01-25T03:01:18;38.50;37.25;40.38;;
41704;Laerm;861;48.808;9.006;2024-01-25T03:03:44;38.49;37.38;39.59;;
41704;Laerm;861;48.808;9.006;2024-01-25T03:06:11;38.52;37.15;42.27;;
41704;Laerm;861;48.808;9.006;2024-01-25T03:08:37;38.51;37.24;42.82;;
41704;Laerm;861;48.808;9.006;2024-01-25T03:11:04;38.52;37.31;40.78;;
41704;Laerm;861;48.808;9.006;2024-01-25T03:13:31;38.49;36.94;39.82;;
41704;Laerm;861;48.808;9.006;2024-01-25T03:15:59;38.47;37.11;39.69;;
41704;Laerm;861;48.808;9.006;2024-01-25T03:18:25;38.44;37.20;39.69;;
41704;Laerm;861;48.808;9.006;2024-01-25T03:20:52;38.46;37.16;39.61;;
41704;Laerm;861;48.808;9.006;2024-01-25T03:23:19;38.45;36.76;41.81;;
41704;Laerm;861;48.808;9.006;2024-01-25T03:25:45;38.46;37.09;39.60;;
41704;Laerm;861;48.808;9.006;2024-01-25T03:28:12;38.43;37.13;43.59;;
41704;Laerm;861;48.808;9.006;2024-01-25T03:30:40;38.43;37.18;41.12;;
41704;Laerm;861;48.808;9.006;2024-01-25T03:33:06;38.41;37.22;39.58;;
41704;Laerm;861;48.808;9.006;2024-01-25T03:35:33;38.41;36.99;41.06;;
41704;Laerm;861;48.808;9.006;2024-01-25T03:37:59;38.39;37.06;41.83;;
41704;Laerm;861;48.808;9.006;2024-01-25T03:40:26;38.37;37.08;39.41;;
41704;Laerm;861;48.808;9.006;2024-01-25T03:42:52;38.39;36.88;42.61;;
41704;Laerm;861;48.808;9.006;2024-01-25T03:45:19;38.35;37.11;40.36;;
41704;Laerm;861;48.808;9.006;2024-01-25T03:47:45;38.32;37.04;39.48;;
41704;Laerm;861;48.808;9.006;2024-01-25T03:50:12;38.32;37.07;42.71;;
41704;Laerm;861;48.808;9.006;2024-01-25T03:52:38;38.29;36.92;39.62;;
41704;Laerm;861;48.808;9.006;2024-01-25T03:55:06;38.24;36.91;39.58;;
41704;Laerm;861;48.808;9.006;2024-01-25T03:57:33;38.22;36.84;39.41;;
41704;Laerm;861;48.808;9.006;2024-01-25T04:00:00;38.21;37.01;39.55;;
41704;Laerm;861;48.808;9.006;2024-01-25T04:02:26;38.22;37.10;39.72;;
41704;Laerm;861;48.808;9.006;2024-01-25T04:04:53;38.19;36.93;39.34;;
41704;Laerm;861;48.808;9.006;2024-01-25T04:07:19;38.20;36.79;39.39;;
41704;Laerm;861;48.808;9.006;2024-01-25T04:09:46;38.17;36.81;39.30;;
41704;Laerm;861;48.808;9.006;2024-01-25T04:12:12;38.18;36.81;39.29;;
41704;Laerm;861;48.808;9.006;2024-01-25T04:14:39;38.27;37.10;39.99;;
41704;Laerm;861;48.808;9.006;2024-01-25T04:17:06;38.32;36.61;39.76;;
41704;Laerm;861;48.808;9.006;2024-01-25T04:19:33;38.28;37.11;39.33;;
41704;Laerm;861;48.808;9.006;2024-01-25T04:21:59;38.25;37.04;39.71;;
41704;Laerm;861;48.808;9.006;2024-01-25T04:24:26;38.27;37.06;39.41;;
41704;Laerm;861;48.808;9.006;2024-01-25T04:26:52;38.35;37.04;44.05;;
41704;Laerm;861;48.808;9.006;2024-01-25T04:29:19;38.31;37.09;39.44;;
41704;Laerm;861;48.808;9.006;2024-01-25T04:31:46;38.32;37.16;40.10;;
41704;Laerm;861;48.808;9.006;2024-01-25T04:34:15;38.33;36.94;39.50;;
41704;Laerm;861;48.808;9.006;2024-01-25T04:36:43;38.31;37.03;39.53;;
41704;Laerm;861;48.808;9.006;2024-01-25T04:39:09;38.27;37.10;39.62;;
41704;Laerm;861;48.808;9.006;2024-01-25T04:41:37;38.26;37.04;40.12;;
41704;Laerm;861;48.808;9.006;2024-01-25T04:44:04;38.25;36.84;39.62;;
41704;Laerm;861;48.808;9.006;2024-01-25T04:46:31;38.27;36.88;39.49;;
41704;Laerm;861;48.808;9.006;2024-01-25T04:49:04;38.28;37.08;39.44;;
41704;Laerm;861;48.808;9.006;2024-01-25T04:51:30;38.28;37.06;39.50;;
41704;Laerm;861;48.808;9.006;2024-01-25T04:53:57;38.35;36.98;39.90;;
41704;Laerm;861;48.808;9.006;2024-01-25T04:56:23;38.37;37.02;39.54;;
41704;Laerm;861;48.808;9.006;2024-01-25T04:58:50;38.35;37.22;39.67;;
41704;Laerm;861;48.808;9.006;2024-01-25T05:01:16;38.37;37.05;39.59;;
41704;Laerm;861;48.808;9.006;2024-01-25T05:03:43;38.36;37.12;39.67;;
41704;Laerm;861;48.808;9.006;2024-01-25T05:06:10;38.34;37.18;39.71;;
41704;Laerm;861;48.808;9.006;2024-01-25T05:08:36;38.37;37.18;41.23;;
41704;Laerm;861;48.808;9.006;2024-01-25T05:11:03;38.38;37.12;41.90;;
41704;Laerm;861;48.808;9.006;2024-01-25T05:13:29;38.35;37.07;39.54;;
41704;Laerm;861;48.808;9.006;2024-01-25T05:15:56;38.36;36.94;39.52;;
41704;Laerm;861;48.808;9.006;2024-01-25T05:18:23;38.36;37.02;39.65;;
41704;Laerm;861;48.808;9.006;2024-01-25T05:20:49;38.35;37.18;40.00;;
41704;Laerm;861;48.808;9.006;2024-01-25T05:23:16;38.34;36.92;39.90;;
41704;Laerm;861;48.808;9.006;2024-01-25T05:25:42;38.33;37.08;39.63;;
41704;Laerm;861;48.808;9.006;2024-01-25T05:28:09;38.30;37.03;39.65;;
41704;Laerm;861;48.808;9.006;2024-01-25T05:30:35;38.25;37.03;39.45;;
41704;Laerm;861;48.808;9.006;2024-01-25T05:33:02;38.19;36.91;39.34;;
41704;Laerm;861;48.808;9.006;2024-01-25T05:35:29;38.09;36.78;39.13;;
41704;Laerm;861;48.808;9.006;2024-01-25T05:37:55;37.98;36.71;39.53;;
41704;Laerm;861;48.808;9.006;2024-01-25T05:40:25;37.98;36.67;47.18;;
41704;Laerm;861;48.808;9.006;2024-01-25T05:42:52;37.90;36.74;39.19;;
41704;Laerm;861;48.808;9.006;2024-01-25T05:45:18;37.88;36.45;41.13;;
41704;Laerm;861;48.808;9.006;2024-01-25T05:47:47;37.84;36.60;39.24;;
41704;Laerm;861;48.808;9.006;2024-01-25T05:50:15;37.82;36.39;40.15;;
41704;Laerm;861;48.808;9.006;2024-01-25T05:52:41;37.77;36.33;38.85;;
41704;Laerm;861;48.808;9.006;2024-01-25T05:55:08;37.72;36.32;39.02;;
41704;Laerm;861;48.808;9.006;2024-01-25T05:57:37;37.66;36.35;38.74;;
41704;Laerm;861;48.808;9.006;2024-01-25T06:00:05;37.60;36.37;38.82;;
41704;Laerm;861;48.808;9.006;2024-01-25T06:02:32;37.52;36.26;38.64;;
41704;Laerm;861;48.808;9.006;2024-01-25T06:04:59;37.47;36.32;38.77;;
41704;Laerm;861;48.808;9.006;2024-01-25T06:07:27;37.38;36.09;38.48;;
41704;Laerm;861;48.808;9.006;2024-01-25T06:09:54;37.36;36.01;38.34;;
41704;Laerm;861;48.808;9.006;2024-01-25T06:12:21;37.32;35.94;38.38;;
41704;Laerm;861;48.808;9.006;2024-01-25T06:14:47;37.28;36.03;38.60;;
41704;Laerm;861;48.808;9.006;2024-01-25T06:17:14;37.29;35.81;38.39;;
41704;Laerm;861;48.808;9.006;2024-01-25T06:19:41;37.28;36.12;38.66;;
41704;Laerm;861;48.808;9.006;2024-01-25T06:22:08;37.30;36.01;38.53;;
41704;Laerm;861;48.808;9.006;2024-01-25T06:24:34;37.28;35.97;38.33;;
41704;Laerm;861;48.808;9.006;2024-01-25T06:27:01;37.28;35.81;38.41;;
41704;Laerm;861;48.808;9.006;2024-01-25T06:29:27;37.25;35.95;38.45;;
41704;Laerm;861;48.808;9.006;2024-01-25T06:31:54;37.23;35.87;38.34;;
41704;Laerm;861;48.808;9.006;2024-01-25T06:34:20;37.25;35.90;38.33;;
41704;Laerm;861;48.808;9.006;2024-01-25T06:36:47;37.23;36.14;38.41;;
41704;Laerm;861;48.808;9.006;2024-01-25T06:39:13;37.19;35.97;38.32;;
41704;Laerm;861;48.808;9.006;2024-01-25T06:41:40;37.18;35.90;38.34;;
41704;Laerm;861;48.808;9.006;2024-01-25T06:44:07;37.23;35.74;38.21;;
41704;Laerm;861;48.808;9.006;2024-01-25T06:46:36;37.22;36.03;38.30;;
41704;Laerm;861;48.808;9.006;2024-01-25T06:49:03;37.17;35.71;38.29;;
41704;Laerm;861;48.808;9.006;2024-01-25T06:51:29;37.11;35.90;38.37;;
41704;Laerm;861;48.808;9.006;2024-01-25T06:53:56;37.12;35.96;38.35;;
41704;Laerm;861;48.808;9.006;2024-01-25T06:56:23;37.20;35.89;38.48;;
41704;Laerm;861;48.808;9.006;2024-01-25T06:58:49;37.19;35.98;38.41;;
41704;Laerm;861;48.808;9.006;2024-01-25T07:01:22;37.19;35.92;38.38;;
41704;Laerm;861;48.808;9.006;2024-01-25T07:03:49;37.23;35.99;38.35;;
41704;Laerm;861;48.808;9.006;2024-01-25T07:06:18;37.26;36.00;38.48;;
41704;Laerm;861;48.808;9.006;2024-01-25T07:08:46;37.29;36.17;38.43;;
41704;Laerm;861;48.808;9.006;2024-01-25T07:11:13;37.28;35.98;38.42;;
41704;Laerm;861;48.808;9.006;2024-01-25T07:13:41;37.22;36.04;38.36;;
41704;Laerm;861;48.808;9.006;2024-01-25T07:16:08;37.19;36.11;38.46;;
41704;Laerm;861;48.808;9.006;2024-01-25T07:18:34;37.20;35.61;38.28;;
41704;Laerm;861;48.808;9.006;2024-01-25T07:21:01;37.19;35.98;38.35;;
41704;Laerm;861;48.808;9.006;2024-01-25T07:23:32;37.20;35.88;38.37;;
41704;Laerm;861;48.808;9.006;2024-01-25T07:25:59;37.19;35.88;38.29;;
41704;Laerm;861;48.808;9.006;2024-01-25T07:28:26;37.18;35.60;38.58;;
41704;Laerm;861;48.808;9.006;2024-01-25T07:30:53;37.19;35.81;38.34;;
41704;Laerm;861;48.808;9.006;2024-01-25T07:33:19;37.15;35.88;38.32;;
41704;Laerm;861;48.808;9.006;2024-01-25T07:35:46;37.13;35.84;38.32;;
41704;Laerm;861;48.808;9.006;2024-01-25T07:38:13;37.09;35.72;38.41;;
41704;Laerm;861;48.808;9.006;2024-01-25T07:40:40;37.08;35.94;38.35;;
41704;Laerm;861;48.808;9.006;2024-01-25T07:43:07;37.08;35.86;38.25;;
41704;Laerm;861;48.808;9.006;2024-01-25T07:45:34;37.09;35.76;38.20;;
41704;Laerm;861;48.808;9.006;2024-01-25T07:48:01;37.16;35.90;38.30;;
41704;Laerm;861;48.808;9.006;2024-01-25T07:50:27;37.23;36.01;38.25;;
41704;Laerm;861;48.808;9.006;2024-01-25T07:52:55;37.30;36.03;38.52;;
41704;Laerm;861;48.808;9.006;2024-01-25T07:55:21;37.38;36.15;38.56;;
41704;Laerm;861;48.808;9.006;2024-01-25T07:57:48;37.42;35.83;38.89;;
41704;Laerm;861;48.808;9.006;2024-01-25T08:00:15;37.47;35.98;38.73;;
41704;Laerm;861;48.808;9.006;2024-01-25T08:02:43;37.46;36.27;38.72;;
41704;Laerm;861;48.808;9.006;2024-01-25T08:05:11;37.48;36.11;38.89;;
41704;Laerm;861;48.808;9.006;2024-01-25T08:07:38;37.49;36.28;38.69;;
41704;Laerm;861;48.808;9.006;2024-01-25T08:10:06;37.54;36.31;39.06;;
41704;Laerm;861;48.808;9.006;2024-01-25T08:12:33;37.59;36.29;38.77;;
41704;Laerm;861;48.808;9.006;2024-01-25T08:14:59;37.63;36.42;38.75;;
41704;Laerm;861;48.808;9.006;2024-01-25T08:17:26;37.67;36.40;38.86;;
41704;Laerm;861;48.808;9.006;2024-01-25T08:19:52;37.70;36.50;38.93;;
41704;Laerm;861;48.808;9.006;2024-01-25T08:22:19;37.69;36.42;38.91;;
41704;Laerm;861;48.808;9.006;2024-01-25T08:24:46;37.73;36.37;38.99;;
41704;Laerm;861;48.808;9.006;2024-01-25T08:27:12;37.79;36.51;38.89;;
41704;Laerm;861;48.808;9.006;2024-01-25T08:29:39;37.88;36.60;39.04;;
41704;Laerm;861;48.808;9.006;2024-01-25T08:32:07;37.98;36.58;39.33;;
41704;Laerm;861;48.808;9.006;2024-01-25T08:34:34;38.23;36.92;39.44;;
41704;Laerm;861;48.808;9.006;2024-01-25T08:37:01;38.46;37.22;39.54;;
41704;Laerm;861;48.808;9.006;2024-01-25T08:39:27;38.56;37.01;39.73;;
41704;Laerm;861;48.808;9.006;2024-01-25T08:41:54;38.61;37.25;39.88;;
41704;Laerm;861;48.808;9.006;2024-01-25T08:44:21;38.63;37.20;39.90;;
41704;Laerm;861;48.808;9.006;2024-01-25T08:46:47;38.67;37.29;40.05;;
41704;Laerm;861;48.808;9.006;2024-01-25T08:49:14;38.69;37.13;40.04;;
41704;Laerm;861;48.808;9.006;2024-01-25T08:51:40;38.73;37.41;39.85;;
41704;Laerm;861;48.808;9.006;2024-01-25T08:54:07;38.75;37.32;39.93;;
41704;Laerm;861;48.808;9.006;2024-01-25T08:56:33;38.77;37.23;40.24;;
41704;Laerm;861;48.808;9.006;2024-01-25T08:59:01;38.78;37.26;39.94;;
41704;Laerm;861;48.808;9.006;2024-01-25T09:01:28;38.81;37.53;40.17;;
41704;Laerm;861;48.808;9.006;2024-01-25T09:03:54;38.80;37.24;40.11;;
41704;Laerm;861;48.808;9.006;2024-01-25T09:06:21;38.82;37.53;40.08;;
41704;Laerm;861;48.808;9.006;2024-01-25T09:08:48;38.83;37.47;40.00;;
41704;Laerm;861;48.808;9.006;2024-01-25T09:11:14;38.83;37.63;39.99;;
41704;Laerm;861;48.808;9.006;2024-01-25T09:13:41;38.84;37.52;40.17;;
41704;Laerm;861;48.808;9.006;2024-01-25T09:16:11;38.84;37.60;40.09;;
41704;Laerm;861;48.808;9.006;2024-01-25T09:18:38;38.84;37.43;40.01;;
41704;Laerm;861;48.808;9.006;2024-01-25T09:21:04;38.84;37.54;40.02;;
41704;Laerm;861;48.808;9.006;2024-01-25T09:23:31;38.84;37.53;40.10;;
41704;Laerm;861;48.808;9.006;2024-01-25T09:25:58;38.83;37.52;39.96;;
41704;Laerm;861;48.808;9.006;2024-01-25T09:28:24;38.83;37.15;40.23;;
41704;Laerm;861;48.808;9.006;2024-01-25T09:30:51;38.82;37.39;40.04;;
41704;Laerm;861;48.808;9.006;2024-01-25T09:33:17;38.82;37.48;39.97;;
41704;Laerm;861;48.808;9.006;2024-01-25T09:35:44;38.82;37.66;40.00;;
41704;Laerm;861;48.808;9.006;2024-01-25T09:38:14;38.84;37.69;40.12;;
41704;Laerm;861;48.808;9.006;2024-01-25T09:40:40;38.82;37.50;40.00;;
41704;Laerm;861;48.808;9.006;2024-01-25T09:43:07;38.82;37.62;40.14;;
41704;Laerm;861;48.808;9.006;2024-01-25T09:45:34;38.81;37.62;40.08;;
41704;Laerm;861;48.808;9.006;2024-01-25T09:48:01;38.82;37.43;40.05;;
41704;Laerm;861;48.808;9.006;2024-01-25T09:50:32;38.82;37.51;40.23;;
41704;Laerm;861;48.808;9.006;2024-01-25T09:53:02;38.83;37.60;39.98;;
41704;Laerm;861;48.808;9.006;2024-01-25T09:55:38;38.82;37.66;40.04;;
41704;Laerm;861;48.808;9.006;2024-01-25T09:58:08;38.81;37.50;40.13;;
41704;Laerm;861;48.808;9.006;2024-01-25T10:00:35;38.82;37.46;39.85;;
41704;Laerm;861;48.808;9.006;2024-01-25T10:03:02;38.81;37.45;40.19;;
41704;Laerm;861;48.808;9.006;2024-01-25T10:05:29;38.82;37.33;41.73;;
41704;Laerm;861;48.808;9.006;2024-01-25T10:07:58;38.82;37.29;40.04;;
41704;Laerm;861;48.808;9.006;2024-01-25T10:10:32;38.82;37.62;39.94;;
41704;Laerm;861;48.808;9.006;2024-01-25T10:12:58;38.82;37.39;40.16;;
41704;Laerm;861;48.808;9.006;2024-01-25T10:15:25;38.82;37.51;40.02;;
41704;Laerm;861;48.808;9.006;2024-01-25T10:17:51;38.82;37.45;40.02;;
41704;Laerm;861;48.808;9.006;2024-01-25T10:20:18;38.82;37.42;40.02;;
41704;Laerm;861;48.808;9.006;2024-01-25T10:22:47;38.83;37.56;40.13;;
41704;Laerm;861;48.808;9.006;2024-01-25T10:25:14;38.85;37.59;39.98;;
41704;Laerm;861;48.808;9.006;2024-01-25T10:27:41;38.86;37.64;40.27;;
41704;Laerm;861;48.808;9.006;2024-01-25T10:30:11;38.86;37.47;40.09;;
41704;Laerm;861;48.808;9.006;2024-01-25T10:32:40;38.86;37.56;39.95;;
41704;Laerm;861;48.808;9.006;2024-01-25T10:35:10;38.86;37.63;40.09;;
41704;Laerm;861;48.808;9.006;2024-01-25T10:37:40;38.87;37.55;39.97;;
41704;Laerm;861;48.808;9.006;2024-01-25T10:40:11;38.86;37.58;40.06;;
41704;Laerm;861;48.808;9.006;2024-01-25T10:42:38;38.87;37.54;39.97;;
41704;Laerm;861;48.808;9.006;2024-01-25T10:45:07;38.85;37.49;40.09;;
41704;Laerm;861;48.808;9.006;2024-01-25T10:47:35;38.82;37.47;40.10;;
41704;Laerm;861;48.808;9.006;2024-01-25T10:50:03;38.80;37.47;40.17;;
41704;Laerm;861;48.808;9.006;2024-01-25T10:52:32;38.82;37.33;40.00;;
41704;Laerm;861;48.808;9.006;2024-01-25T10:55:00;38.83;37.48;40.18;;
41704;Laerm;861;48.808;9.006;2024-01-25T10:57:35;38.86;37.64;40.09;;
41704;Laerm;861;48.808;9.006;2024-01-25T11:00:02;38.84;37.55;40.01;;
41704;Laerm;861;48.808;9.006;2024-01-25T11:02:31;38.80;37.47;40.04;;
41704;Laerm;861;48.808;9.006;2024-01-25T11:05:00;38.75;37.38;40.04;;
41704;Laerm;861;48.808;9.006;2024-01-25T11:07:27;38.75;37.43;39.90;;
41704;Laerm;861;48.808;9.006;2024-01-25T11:09:56;38.78;37.47;40.41;;
41704;Laerm;861;48.808;9.006;2024-01-25T11:12:23;38.76;37.48;40.17;;
41704;Laerm;861;48.808;9.006;2024-01-25T11:14:56;38.80;37.49;40.12;;
41704;Laerm;861;48.808;9.006;2024-01-25T11:17:23;38.77;37.45;40.21;;
41704;Laerm;861;48.808;9.006;2024-01-25T11:19:50;38.78;37.43;40.04;;
41704;Laerm;861;48.808;9.006;2024-01-25T11:22:17;38.76;37.45;39.90;;
41704;Laerm;861;48.808;9.006;2024-01-25T11:24:44;38.77;37.59;39.87;;
41704;Laerm;861;48.808;9.006;2024-01-25T11:27:13;38.80;37.34;41.00;;
41704;Laerm;861;48.808;9.006;2024-01-25T11:29:42;38.73;37.38;40.11;;
41704;Laerm;861;48.808;9.006;2024-01-25T11:32:11;38.75;37.42;40.13;;
41704;Laerm;861;48.808;9.006;2024-01-25T11:34:38;38.76;37.42;40.01;;
41704;Laerm;861;48.808;9.006;2024-01-25T11:37:05;38.72;37.43;40.03;;
41704;Laerm;861;48.808;9.006;2024-01-25T11:39:33;38.72;37.11;40.25;;
41704;Laerm;861;48.808;9.006;2024-01-25T11:41:59;38.70;37.32;39.93;;
41704;Laerm;861;48.808;9.006;2024-01-25T11:44:26;38.68;37.34;39.87;;
41704;Laerm;861;48.808;9.006;2024-01-25T11:46:56;38.71;37.41;40.04;;
41704;Laerm;861;48.808;9.006;2024-01-25T11:49:25;38.71;37.16;40.20;;
41704;Laerm;861;48.808;9.006;2024-01-25T11:51:52;38.64;37.37;40.01;;
41704;Laerm;861;48.808;9.006;2024-01-25T11:54:19;38.59;37.26;39.88;;
41704;Laerm;861;48.808;9.006;2024-01-25T11:56:47;38.63;37.28;39.98;;
41704;Laerm;861;48.808;9.006;2024-01-25T11:59:15;38.68;37.35;40.04;;
41704;Laerm;861;48.808;9.006;2024-01-25T12:01:42;38.68;37.25;40.04;;
41704;Laerm;861;48.808;9.006;2024-01-25T12:04:09;38.70;37.44;40.13;;
41704;Laerm;861;48.808;9.006;2024-01-25T12:06:36;38.71;37.38;39.94;;
41704;Laerm;861;48.808;9.006;2024-01-25T12:09:11;38.73;37.42;39.87;;
41704;Laerm;861;48.808;9.006;2024-01-25T12:11:41;38.74;37.37;40.02;;
41704;Laerm;861;48.808;9.006;2024-01-25T12:14:10;38.66;37.25;39.98;;
41704;Laerm;861;48.808;9.006;2024-01-25T12:16:37;38.62;37.33;40.09;;
41704;Laerm;861;48.808;9.006;2024-01-25T12:19:03;38.58;37.29;39.86;;
41704;Laerm;861;48.808;9.006;2024-01-25T12:21:34;38.55;37.24;39.73;;
41704;Laerm;861;48.808;9.006;2024-01-25T12:24:01;38.54;37.09;39.94;;
41704;Laerm;861;48.808;9.006;2024-01-25T12:26:28;38.50;37.14;39.66;;
41704;Laerm;861;48.808;9.006;2024-01-25T12:28:55;38.52;37.09;39.85;;
41704;Laerm;861;48.808;9.006;2024-01-25T12:31:21;38.55;36.97;39.80;;
41704;Laerm;861;48.808;9.006;2024-01-25T12:33:48;38.59;37.10;40.04;;
41704;Laerm;861;48.808;9.006;2024-01-25T12:36:14;38.61;37.37;39.87;;
41704;Laerm;861;48.808;9.006;2024-01-25T12:38:41;38.63;37.32;39.87;;
41704;Laerm;861;48.808;9.006;2024-01-25T12:41:08;38.65;37.29;39.82;;
41704;Laerm;861;48.808;9.006;2024-01-25T12:43:34;38.66;37.30;40.01;;
41704;Laerm;861;48.808;9.006;2024-01-25T12:46:01;38.70;37.33;40.00;;
41704;Laerm;861;48.808;9.006;2024-01-25T12:48:27;38.71;37.21;39.97;;
41704;Laerm;861;48.808;9.006;2024-01-25T12:50:54;38.70;37.30;39.88;;
41704;Laerm;861;48.808;9.006;2024-01-25T12:53:21;38.68;37.25;40.02;;
41704;Laerm;861;48.808;9.006;2024-01-25T12:55:47;38.67;37.22;39.97;;
41704;Laerm;861;48.808;9.006;2024-01-25T12:58:14;38.70;37.32;39.99;;
41704;Laerm;861;48.808;9.006;2024-01-25T13:00:40;38.63;37.32;39.91;;
41704;Laerm;861;48.808;9.006;2024-01-25T13:03:07;38.57;37.05;39.77;;
41704;Laerm;861;48.808;9.006;2024-01-25T13:05:34;38.60;37.18;39.80;;
41704;Laerm;861;48.808;9.006;2024-01-25T13:08:04;38.57;37.12;39.71;;
41704;Laerm;861;48.808;9.006;2024-01-25T13:10:31;38.61;37.28;40.07;;
41704;Laerm;861;48.808;9.006;2024-01-25T13:12:58;38.58;37.22;39.89;;
41704;Laerm;861;48.808;9.006;2024-01-25T13:15:25;38.51;37.13;39.92;;
41704;Laerm;861;48.808;9.006;2024-01-25T13:17:53;38.45;36.93;39.75;;
41704;Laerm;861;48.808;9.006;2024-01-25T13:20:19;38.40;37.09;39.66;;
41704;Laerm;861;48.808;9.006;2024-01-25T13:22:46;38.34;37.11;39.51;;
41704;Laerm;861;48.808;9.006;2024-01-25T13:25:13;38.29;37.05;39.86;;
41704;Laerm;861;48.808;9.006;2024-01-25T13:27:41;38.24;36.64;39.51;;
41704;Laerm;861;48.808;9.006;2024-01-25T13:30:09;38.16;36.85;39.38;;
41704;Laerm;861;48.808;9.006;2024-01-25T13:32:37;38.09;36.81;39.54;;
41704;Laerm;861;48.808;9.006;2024-01-25T13:35:05;38.09;36.76;39.33;;
41704;Laerm;861;48.808;9.006;2024-01-25T13:37:32;38.10;36.59;39.40;;
41704;Laerm;861;48.808;9.006;2024-01-25T13:39:58;38.12;36.67;39.35;;
41704;Laerm;861;48.808;9.006;2024-01-25T13:42:25;38.14;36.88;39.50;;
41704;Laerm;861;48.808;9.006;2024-01-25T13:44:51;38.18;36.49;39.56;;
41704;Laerm;861;48.808;9.006;2024-01-25T13:47:18;38.23;36.83;39.45;;
41704;Laerm;861;48.808;9.006;2024-01-25T13:49:45;38.23;36.89;39.49;;
41704;Laerm;861;48.808;9.006;2024-01-25T13:52:20;38.26;36.78;39.61;;
41704;Laerm;861;48.808;9.006;2024-01-25T13:54:48;38.30;36.92;39.52;;
41704;Laerm;861;48.808;9.006;2024-01-25T13:57:16;38.27;36.90;39.71;;
41704;Laerm;861;48.808;9.006;2024-01-25T13:59:43;38.27;36.75;39.62;;
41704;Laerm;861;48.808;9.006;2024-01-25T14:02:09;38.27;36.93;39.67;;
41704;Laerm;861;48.808;9.006;2024-01-25T14:04:36;38.29;36.89;39.51;;
41704;Laerm;861;48.808;9.006;2024-01-25T14:07:03;38.35;36.99;39.55;;
41704;Laerm;861;48.808;9.006;2024-01-25T14:09:29;38.31;36.90;39.66;;
41704;Laerm;861;48.808;9.006;2024-01-25T14:11:56;38.29;36.97;39.60;;